createdAt,value
2022-09-05T00:00:52.944Z,21.98
2022-09-05T00:04:25.202Z,22.04
2022-09-05T00:07:57.912Z,22.02
2022-09-05T00:11:40.416Z,21.95
2022-09-05T00:15:16.770Z,21.92
2022-09-05T00:23:45.533Z,21.96
2022-09-05T00:24:27.148Z,21.90
2022-09-05T00:26:06.224Z,21.96
2022-09-05T00:30:52.349Z,21.95
2022-09-05T00:33:16.810Z,21.97
2022-09-05T00:36:41.618Z,21.97
2022-09-05T00:39:48.564Z,22.02
2022-09-05T00:43:18.836Z,21.90
2022-09-05T00:46:31.901Z,21.90
2022-09-05T00:50:00.219Z,21.83
2022-09-05T00:53:22.961Z,21.90
2022-09-05T00:56:40.183Z,21.61
2022-09-05T01:00:05.021Z,21.58
2022-09-05T01:03:33.319Z,21.57
2022-09-05T01:07:23.768Z,21.38
2022-09-05T01:10:52.820Z,21.56
2022-09-05T01:14:26.673Z,21.61
2022-09-05T01:17:56.420Z,21.39
2022-09-05T01:21:12.178Z,21.24
2022-09-05T01:24:34.804Z,21.36
2022-09-05T01:29:12.978Z,21.43
2022-09-05T01:31:24.400Z,21.34
2022-09-05T01:34:47.693Z,21.30
2022-09-05T01:37:58.189Z,21.25
2022-09-05T01:41:18.736Z,21.34
2022-09-05T01:44:42.542Z,21.30
2022-09-05T01:47:53.896Z,21.37
2022-09-05T01:51:31.732Z,21.32
2022-09-05T01:55:16.450Z,21.38
2022-09-05T01:58:27.663Z,21.32
2022-09-05T02:02:01.668Z,21.48
2022-09-05T02:05:20.719Z,21.58
2022-09-05T02:09:10.616Z,21.46
2022-09-05T02:12:15.843Z,21.43
2022-09-05T02:15:30.474Z,21.26
2022-09-05T02:18:58.045Z,21.19
2022-09-05T02:22:06.421Z,21.27
2022-09-05T02:26:02.401Z,21.18
2022-09-05T02:29:29.230Z,21.19
2022-09-05T02:32:59.887Z,21.13
2022-09-05T02:36:06.252Z,21.04
2022-09-05T02:45:01.579Z,21.15
2022-09-05T02:45:20.072Z,20.88
2022-09-05T02:47:13.584Z,20.85
2022-09-05T02:53:59.292Z,20.92
2022-09-05T02:57:33.496Z,21.09
2022-09-05T02:58:15.905Z,20.97
2022-09-05T03:01:40.086Z,20.93
2022-09-05T03:05:15.148Z,20.77
2022-09-05T03:09:16.579Z,20.92
2022-09-05T03:12:28.278Z,20.89
2022-09-05T03:16:03.871Z,20.91
2022-09-05T03:19:28.640Z,20.93
2022-09-05T03:22:59.877Z,20.81
2022-09-05T03:26:42.451Z,20.70
2022-09-05T03:29:58.606Z,20.74
2022-09-05T03:33:25.324Z,20.72
2022-09-05T03:36:44.184Z,20.78
2022-09-05T03:40:17.254Z,20.59
2022-09-05T03:43:41.108Z,20.74
2022-09-05T03:47:02.779Z,20.61
2022-09-05T03:57:05.714Z,20.60
2022-09-05T03:57:24.631Z,20.64
2022-09-05T03:58:36.579Z,20.61
2022-09-05T04:04:16.904Z,20.54
2022-09-05T04:08:25.372Z,20.49
2022-09-05T04:09:49.431Z,20.48
2022-09-05T04:13:17.323Z,20.43
2022-09-05T04:16:51.210Z,20.57
2022-09-05T04:20:14.354Z,20.48
2022-09-05T04:23:43.547Z,20.62
2022-09-05T04:27:13.459Z,20.61
2022-09-05T04:30:44.554Z,20.30
2022-09-05T04:34:27.451Z,20.41
2022-09-05T04:37:52.566Z,20.53
2022-09-05T04:41:00.797Z,20.59
2022-09-05T04:44:16.326Z,20.66
2022-09-05T04:47:26.278Z,20.69
2022-09-05T04:50:38.174Z,20.57
2022-09-05T04:54:04.425Z,20.52
2022-09-05T04:57:19.455Z,20.59
2022-09-05T05:06:03.734Z,20.60
2022-09-05T05:06:12.920Z,20.66
2022-09-05T05:07:53.697Z,20.68
2022-09-05T05:18:02.674Z,20.58
2022-09-05T05:18:15.467Z,20.59
2022-09-05T05:18:56.010Z,20.71
2022-09-05T05:22:13.925Z,20.87
2022-09-05T05:25:20.015Z,20.92
2022-09-05T05:28:56.435Z,20.89
2022-09-05T05:32:04.391Z,21.02
2022-09-05T05:35:13.164Z,21.00
2022-09-05T05:38:18.359Z,20.93
2022-09-05T05:41:46.067Z,20.89
2022-09-05T05:45:01.309Z,20.95
2022-09-05T05:48:12.202Z,20.97
2022-09-05T05:51:34.613Z,21.00
2022-09-05T05:55:50.734Z,21.19
2022-09-05T05:58:58.393Z,21.51
2022-09-05T06:02:26.100Z,21.69
2022-09-05T06:05:50.351Z,21.79
2022-09-05T06:14:27.494Z,21.90
2022-09-05T06:15:07.078Z,21.84
2022-09-05T06:17:14.743Z,21.97
2022-09-05T06:22:08.868Z,22.11
2022-09-05T06:24:43.166Z,22.14
2022-09-05T06:28:18.501Z,22.17
2022-09-05T06:31:35.818Z,22.24
2022-09-05T06:35:03.717Z,22.20
2022-09-05T06:38:22.392Z,22.14
2022-09-05T06:42:04.147Z,22.32
2022-09-05T06:45:27.853Z,22.40
2022-09-05T06:49:28.937Z,22.60
2022-09-05T06:52:37.796Z,22.72
2022-09-05T06:55:55.334Z,22.87
2022-09-05T06:59:34.620Z,22.79
2022-09-05T07:03:02.799Z,22.85
2022-09-05T07:07:01.589Z,22.83
2022-09-05T07:11:11.278Z,22.94
2022-09-05T07:14:29.540Z,22.93
2022-09-05T07:18:09.674Z,23.06
2022-09-05T07:21:39.523Z,23.27
2022-09-05T07:24:53.433Z,23.25
2022-09-05T07:28:26.827Z,23.32
2022-09-05T07:31:39.211Z,23.48
2022-09-05T07:34:48.844Z,23.72
2022-09-05T07:38:15.100Z,23.54
2022-09-05T07:41:39.794Z,23.80
2022-09-05T07:44:59.509Z,23.92
2022-09-05T07:48:35.211Z,24.00
2022-09-05T07:56:58.452Z,23.97
2022-09-05T07:57:01.600Z,24.14
2022-09-05T07:58:55.203Z,24.44
2022-09-05T08:02:06.067Z,24.49
2022-09-05T08:05:15.977Z,24.42
2022-09-05T08:08:39.087Z,24.58
2022-09-05T08:11:49.341Z,24.58
2022-09-05T08:15:01.466Z,24.81
2022-09-05T08:18:16.657Z,24.72
2022-09-05T08:21:42.483Z,24.65
2022-09-05T08:25:12.186Z,24.80
2022-09-05T08:28:41.327Z,24.76
2022-09-05T08:32:08.782Z,24.90
2022-09-05T08:35:24.501Z,24.93
2022-09-05T08:38:40.672Z,25.08
2022-09-05T08:42:08.881Z,25.25
2022-09-05T08:46:43.072Z,25.30
2022-09-05T08:49:11.266Z,25.58
2022-09-05T08:52:46.005Z,25.22
2022-09-05T08:56:20.732Z,25.32
2022-09-05T09:00:19.222Z,25.53
2022-09-05T09:03:42.163Z,25.68
2022-09-05T09:07:50.786Z,25.77
2022-09-05T09:11:01.461Z,25.63
2022-09-05T09:14:34.185Z,25.85
2022-09-05T09:17:49.713Z,25.75
2022-09-05T09:21:02.921Z,25.88
2022-09-05T09:25:08.749Z,26.18
2022-09-05T09:28:52.058Z,26.39
2022-09-05T09:32:11.004Z,26.19
2022-09-05T09:35:34.891Z,25.86
2022-09-05T09:39:37.391Z,25.65
2022-09-05T09:42:39.796Z,26.00
2022-09-05T09:46:11.682Z,26.11
2022-09-05T09:49:47.293Z,26.21
2022-09-05T09:53:23.893Z,26.38
2022-09-05T09:56:40.668Z,26.64
2022-09-05T10:00:05.983Z,26.42
2022-09-05T10:06:50.981Z,26.32
2022-09-05T10:10:44.179Z,26.25
2022-09-05T10:11:39.994Z,26.35
2022-09-05T10:14:53.946Z,26.69
2022-09-05T10:18:25.569Z,26.49
2022-09-05T10:25:51.724Z,26.86
2022-09-05T10:28:57.914Z,26.94
2022-09-05T10:35:12.788Z,26.71
2022-09-05T10:36:05.100Z,26.80
2022-09-05T10:39:27.566Z,26.70
2022-09-05T10:42:58.168Z,26.99
2022-09-05T10:46:49.772Z,26.99
2022-09-05T10:50:03.808Z,26.85
2022-09-05T10:53:15.695Z,26.78
2022-09-05T10:56:29.198Z,27.03
2022-09-05T11:02:16.333Z,27.31
2022-09-05T11:03:45.921Z,27.24
2022-09-05T11:07:29.702Z,27.10
2022-09-05T11:10:44.995Z,27.34
2022-09-05T11:13:54.450Z,27.45
2022-09-05T11:17:12.095Z,27.43
2022-09-05T11:20:34.874Z,27.47
2022-09-05T11:23:47.597Z,27.54
2022-09-05T11:27:24.227Z,27.27
2022-09-05T11:30:41.026Z,27.43
2022-09-05T11:39:50.426Z,27.43
2022-09-05T11:40:09.001Z,27.36
2022-09-05T11:41:49.343Z,27.54
2022-09-05T11:45:28.585Z,27.61
2022-09-05T11:48:52.975Z,27.66
2022-09-05T11:52:39.317Z,27.82
2022-09-05T11:55:59.550Z,27.70
2022-09-05T11:59:13.998Z,27.80
2022-09-05T12:02:58.348Z,27.59
2022-09-05T12:06:09.757Z,27.74
2022-09-05T12:09:37.792Z,27.81
2022-09-05T12:13:16.285Z,27.89
2022-09-05T12:16:37.581Z,27.98
2022-09-05T12:20:07.704Z,28.00
2022-09-05T12:23:54.032Z,28.05
2022-09-05T12:30:55.113Z,28.08
2022-09-05T12:36:07.972Z,28.11
2022-09-05T12:40:44.621Z,28.26
2022-09-05T12:41:44.465Z,28.26
2022-09-05T12:42:10.389Z,28.10
2022-09-05T12:45:21.399Z,28.13
2022-09-05T12:48:47.378Z,28.32
2022-09-05T12:52:03.748Z,28.34
2022-09-05T12:55:25.029Z,28.41
2022-09-05T13:02:58.068Z,28.37
2022-09-05T13:03:13.877Z,28.46
2022-09-05T13:05:55.818Z,28.27
2022-09-05T13:10:07.635Z,28.37
2022-09-05T13:15:01.387Z,28.55
2022-09-05T13:16:29.081Z,28.76
2022-09-05T13:19:51.624Z,28.47
2022-09-05T13:22:57.750Z,28.53
2022-09-05T13:26:16.850Z,28.64
2022-09-05T13:29:28.623Z,28.46
2022-09-05T13:38:03.245Z,28.54
2022-09-05T13:38:16.164Z,28.80
2022-09-05T13:40:04.802Z,28.75
2022-09-05T13:43:23.751Z,28.72
2022-09-05T13:47:10.538Z,28.84
2022-09-05T13:50:33.016Z,28.87
2022-09-05T13:53:54.219Z,29.08
2022-09-05T13:57:31.518Z,29.01
2022-09-05T14:00:53.859Z,29.13
2022-09-05T14:05:05.164Z,29.04
2022-09-05T14:08:01.081Z,29.26
2022-09-05T14:11:38.177Z,29.21
2022-09-05T14:15:14.155Z,29.02
2022-09-05T14:18:22.512Z,29.20
2022-09-05T14:21:31.786Z,29.20
2022-09-05T14:24:48.606Z,28.88
2022-09-05T14:28:05.713Z,28.98
2022-09-05T14:37:34.157Z,29.08
2022-09-05T14:37:52.922Z,28.99
2022-09-05T14:39:14.261Z,29.03
2022-09-05T14:42:41.967Z,29.26
2022-09-05T14:46:00.471Z,29.22
2022-09-05T14:49:49.423Z,29.16
2022-09-05T15:02:09.600Z,29.03
2022-09-05T15:02:54.234Z,29.07
2022-09-05T15:07:28.816Z,29.30
2022-09-05T15:11:47.296Z,29.29
2022-09-05T15:14:12.453Z,29.14
2022-09-05T15:17:24.907Z,29.09
2022-09-05T15:20:38.428Z,29.17
2022-09-05T15:23:46.165Z,29.18
2022-09-05T15:26:56.436Z,29.19
2022-09-05T15:30:03.004Z,29.11
2022-09-05T15:33:25.385Z,29.15
2022-09-05T15:36:37.739Z,29.08
2022-09-05T15:39:43.227Z,29.20
2022-09-05T15:42:58.346Z,29.21
2022-09-05T15:46:05.603Z,29.03
2022-09-05T15:49:24.754Z,29.07
2022-09-05T15:52:48.259Z,29.01
2022-09-05T15:56:20.190Z,28.90
2022-09-05T15:59:31.764Z,28.90
2022-09-05T16:02:46.400Z,28.76
2022-09-05T16:10:39.839Z,28.50
2022-09-05T16:10:41.443Z,28.62
2022-09-05T16:13:15.314Z,28.47
2022-09-05T16:23:13.392Z,28.36
2022-09-05T16:23:25.288Z,28.37
2022-09-05T16:23:45.472Z,28.19
2022-09-05T16:26:54.696Z,28.14
2022-09-05T16:30:01.170Z,28.09
2022-09-05T16:33:12.433Z,27.99
2022-09-05T16:36:38.326Z,27.94
2022-09-05T16:39:59.160Z,27.80
2022-09-05T16:43:09.220Z,27.64
2022-09-05T16:47:03.336Z,27.54
2022-09-05T16:50:37.229Z,27.57
2022-09-05T16:54:10.324Z,27.72
2022-09-05T16:57:34.574Z,27.68
2022-09-05T17:00:45.514Z,27.61
2022-09-05T17:04:15.889Z,27.50
2022-09-05T17:07:45.793Z,27.49
2022-09-05T17:11:06.243Z,27.31
2022-09-05T17:14:22.257Z,27.22
2022-09-05T17:18:19.822Z,27.12
2022-09-05T17:21:08.403Z,26.82
2022-09-05T17:29:20.331Z,26.75
2022-09-05T17:29:35.094Z,26.79
2022-09-05T17:35:21.427Z,26.60
2022-09-05T17:38:54.897Z,26.56
2022-09-05T17:42:13.805Z,26.46
2022-09-05T17:45:27.349Z,26.29
2022-09-05T17:49:16.231Z,26.34
2022-09-05T17:52:19.635Z,26.27
2022-09-05T17:55:40.561Z,26.33
2022-09-05T17:59:05.619Z,26.09
2022-09-05T18:02:14.201Z,26.19
2022-09-05T18:05:59.619Z,26.07
2022-09-05T18:09:48.026Z,25.77
2022-09-05T18:13:12.495Z,25.82
2022-09-05T18:20:38.935Z,25.67
2022-09-05T18:23:54.806Z,25.59
2022-09-05T18:27:43.808Z,25.51
2022-09-05T18:30:42.718Z,25.51
2022-09-05T18:34:15.744Z,25.51
2022-09-05T18:37:37.701Z,25.39
2022-09-05T18:40:54.790Z,25.34
2022-09-05T18:44:13.667Z,25.35
2022-09-05T18:47:52.846Z,25.33
2022-09-05T18:51:15.237Z,25.31
2022-09-05T18:54:25.440Z,25.16
2022-09-05T18:57:38.361Z,25.20
2022-09-05T19:00:47.337Z,25.06
2022-09-05T19:03:56.883Z,25.16
2022-09-05T19:07:25.260Z,25.11
2022-09-05T19:10:36.914Z,25.14
2022-09-05T19:13:46.524Z,25.10
2022-09-05T19:16:52.050Z,25.00
2022-09-05T19:20:32.613Z,24.88
2022-09-05T19:24:03.228Z,24.70
2022-09-05T19:30:19.405Z,24.51
2022-09-05T19:36:46.872Z,24.58
2022-09-05T19:36:54.024Z,24.56
2022-09-05T19:37:42.759Z,24.54
2022-09-05T19:47:31.417Z,24.49
2022-09-05T19:47:36.395Z,24.52
2022-09-05T19:48:41.774Z,24.44
2022-09-05T19:51:47.747Z,24.22
2022-09-05T19:54:53.264Z,24.28
2022-09-05T19:58:15.004Z,24.30
2022-09-05T20:01:26.264Z,24.10
2022-09-05T20:04:37.224Z,24.12
2022-09-05T20:07:51.280Z,24.01
2022-09-05T20:11:05.296Z,24.05
2022-09-05T20:14:31.309Z,23.98
2022-09-05T20:17:39.567Z,23.84
2022-09-05T20:21:16.640Z,23.84
2022-09-05T20:24:22.102Z,23.81
2022-09-05T20:27:30.276Z,23.68
2022-09-05T20:30:35.750Z,23.62
2022-09-05T20:33:51.907Z,23.73
2022-09-05T20:41:42.054Z,23.71
2022-09-05T20:43:35.093Z,23.74
2022-09-05T20:44:22.363Z,23.71
2022-09-05T20:54:06.986Z,23.64
2022-09-05T20:54:14.765Z,23.76
2022-09-05T20:54:44.420Z,23.73
2022-09-05T20:57:51.287Z,23.73
2022-09-05T21:01:21.488Z,23.61
2022-09-05T21:04:34.921Z,23.54
2022-09-05T21:07:40.443Z,23.49
2022-09-05T21:10:57.535Z,23.43
2022-09-05T21:14:05.415Z,23.43
2022-09-05T21:17:15.577Z,23.32
2022-09-05T21:20:24.520Z,23.19
2022-09-05T21:23:35.166Z,22.88
2022-09-05T21:26:40.702Z,23.00
2022-09-05T21:29:48.205Z,22.90
2022-09-05T21:33:18.299Z,23.06
2022-09-05T21:36:24.381Z,22.81
2022-09-05T21:39:33.909Z,22.95
2022-09-05T21:46:34.317Z,22.93
2022-09-05T21:47:51.302Z,22.89
2022-09-05T21:49:36.996Z,22.88
2022-09-05T21:52:50.191Z,22.82
2022-09-05T21:59:33.446Z,22.79
2022-09-05T21:59:46.915Z,22.88
2022-09-05T22:02:53.893Z,22.82
2022-09-05T22:06:04.186Z,22.80
2022-09-05T22:09:14.453Z,22.81
2022-09-05T22:12:30.064Z,22.64
2022-09-05T22:15:37.690Z,22.77
2022-09-05T22:18:45.711Z,22.63
2022-09-05T22:21:54.036Z,22.66
2022-09-05T22:25:06.806Z,22.55
2022-09-05T22:28:28.745Z,22.57
2022-09-05T22:31:39.959Z,22.68
2022-09-05T22:34:46.345Z,22.69
2022-09-05T22:37:59.077Z,22.60
2022-09-05T22:41:06.179Z,22.50
2022-09-05T22:44:12.489Z,22.66
2022-09-05T22:47:20.286Z,22.61
2022-09-05T22:50:26.959Z,22.56
2022-09-05T22:53:32.919Z,22.49
2022-09-05T22:56:38.454Z,22.55
2022-09-05T22:59:44.328Z,22.49
2022-09-05T23:02:52.705Z,22.52
2022-09-05T23:06:07.364Z,22.46
2022-09-05T23:09:13.192Z,22.39
2022-09-05T23:12:19.018Z,22.24
2022-09-05T23:15:25.264Z,22.15
2022-09-05T23:18:32.567Z,22.22
2022-09-05T23:21:38.089Z,22.17
2022-09-05T23:24:44.057Z,22.08
2022-09-05T23:27:50.571Z,22.21
2022-09-05T23:31:00.184Z,22.22
2022-09-05T23:34:05.936Z,22.26
2022-09-05T23:37:11.546Z,22.21
2022-09-05T23:40:22.091Z,22.31
2022-09-05T23:43:27.771Z,22.20
2022-09-05T23:46:33.736Z,22.09
2022-09-05T23:49:39.339Z,21.99
2022-09-05T23:52:46.272Z,22.05
2022-09-05T23:55:51.898Z,22.04
2022-09-05T23:58:57.463Z,22.11
